Time;durP1;ratioP1;P1;durP2;ratioP2;P2;SDS_P1;SDS_P2;PMS_P1;PMS_P2;Temp;Humidity;BMP_temperature;BMP_pressure;BME280_temperature;BME280_humidity;BME280_pressure;Samples;Min_cycle;Max_cycle;Signal;HPM_P1;HPM_P2
2021/08/24 02:13:48;;;;;;;2.88;2.63;;;12.10;94.00;;;;;;2042494;29;20176;-65
2021/08/24 02:14:49;;;;;;;4.82;3.70;;;12.10;94.10;;;;;;2044457;29;20172;-67
2021/08/24 02:15:55;;;;;;;3.75;3.08;;;12.00;94.00;;;;;;2050205;28;20184;-66
2021/08/24 02:16:59;;;;;;;3.33;2.78;;;12.00;94.00;;;;;;2049625;29;20188;-66
2021/08/24 02:18:01;;;;;;;4.03;2.83;;;12.00;93.80;;;;;;2042028;29;20664;-66
2021/08/24 02:19:13;;;;;;;7.82;4.03;;;12.00;93.70;;;;;;2041586;29;20192;-67
2021/08/24 02:20:26;;;;;;;4.35;3.15;;;12.00;93.80;;;;;;2043133;29;20914;-66
2021/08/24 02:21:35;;;;;;;3.65;2.75;;;12.00;93.80;;;;;;2043258;29;20600;-67
2021/08/24 02:22:40;;;;;;;5.18;3.28;;;11.90;93.90;;;;;;2042850;29;20184;-67
2021/08/24 02:23:46;;;;;;;3.67;3.10;;;11.80;93.90;;;;;;2049555;29;20168;-67
2021/08/24 02:24:54;;;;;;;3.50;3.20;;;11.80;94.10;;;;;;2042405;29;20668;-66
2021/08/24 02:25:59;;;;;;;14.85;3.65;;;11.70;94.60;;;;;;2042809;29;20232;-66
2021/08/24 02:27:06;;;;;;;5.00;3.28;;;11.60;94.60;;;;;;2049641;29;20750;-67
2021/08/24 02:28:20;;;;;;;4.20;2.55;;;11.60;94.50;;;;;;2049769;29;20190;-67
2021/08/24 02:29:21;;;;;;;4.80;2.50;;;11.60;94.60;;;;;;2043042;28;20196;-67
2021/08/24 02:30:22;;;;;;;4.97;2.70;;;11.50;94.30;;;;;;2049531;29;20186;-67
2021/08/24 02:32:05;;;;;;;3.70;2.90;;;11.50;94.30;;;;;;2050311;28;20246;-66
2021/08/24 02:33:06;;;;;;;4.35;3.17;;;11.50;94.30;;;;;;2049460;29;20266;-66
2021/08/24 02:34:59;;;;;;;4.40;3.08;;;11.40;94.20;;;;;;2049531;29;20190;-67
2021/08/24 02:36:03;;;;;;;3.65;2.42;;;11.40;94.10;;;;;;2045072;28;20195;-65
2021/08/24 02:37:52;;;;;;;4.03;3.03;;;11.40;93.90;;;;;;2049268;29;20188;-65
2021/08/24 02:39:04;;;;;;;4.28;3.28;;;11.40;93.90;;;;;;2025038;29;20720;-67
2021/08/24 02:40:20;;;;;;;3.80;3.05;;;11.40;94.10;;;;;;2026780;29;20229;-67
2021/08/24 02:41:36;;;;;;;5.70;3.40;;;11.20;94.10;;;;;;2033263;29;20177;-66
2021/08/24 02:43:19;;;;;;;3.25;2.83;;;11.20;94.30;;;;;;2033222;29;20172;-66
2021/08/24 02:44:26;;;;;;;4.85;3.30;;;11.20;94.40;;;;;;2035029;29;20192;-65
2021/08/24 02:45:36;;;;;;;4.05;2.80;;;11.10;94.50;;;;;;2042298;29;20189;-66
2021/08/24 02:46:44;;;;;;;2.42;2.22;;;11.10;94.60;;;;;;2042595;29;20180;-68
2021/08/24 02:47:45;;;;;;;3.38;2.60;;;11.10;94.40;;;;;;2042435;29;20245;-66
2021/08/24 02:48:52;;;;;;;2.97;2.67;;;11.10;94.30;;;;;;2041393;29;20200;-66
2021/08/24 02:49:53;;;;;;;4.80;3.22;;;11.00;94.40;;;;;;2042080;29;20196;-67
2021/08/24 02:50:54;;;;;;;2.97;2.73;;;11.00;94.40;;;;;;2049323;29;20191;-65
2021/08/24 02:51:57;;;;;;;5.40;3.60;;;11.00;94.60;;;;;;2049852;28;20184;-66
2021/08/24 02:52:58;;;;;;;4.07;3.20;;;10.90;94.40;;;;;;2050059;28;20175;-67
2021/08/24 02:54:16;;;;;;;3.25;2.80;;;10.90;94.40;;;;;;2049997;28;20172;-67
2021/08/24 02:55:17;;;;;;;5.03;2.85;;;10.90;94.90;;;;;;2049469;29;20191;-67
2021/08/24 02:56:18;;;;;;;3.42;2.65;;;10.90;94.20;;;;;;2049332;29;20221;-66
2021/08/24 02:57:19;;;;;;;3.50;3.03;;;10.90;94.20;;;;;;2049978;28;20184;-66
2021/08/24 02:58:20;;;;;;;2.37;2.00;;;10.90;94.20;;;;;;2049934;28;20187;-66
2021/08/24 02:59:22;;;;;;;2.87;2.37;;;10.90;94.30;;;;;;2049646;28;20176;-66
2021/08/24 03:00:23;;;;;;;5.97;3.17;;;10.90;94.50;;;;;;2050024;28;20175;-66
2021/08/24 03:01:23;;;;;;;5.00;2.88;;;10.80;94.70;;;;;;2049892;28;20195;-66
2021/08/24 03:02:24;;;;;;;3.80;3.00;;;10.80;94.70;;;;;;2049224;29;20654;-66
2021/08/24 03:03:25;;;;;;;3.03;2.67;;;10.80;94.70;;;;;;2049405;29;20187;-67
2021/08/24 03:04:27;;;;;;;3.07;2.67;;;10.80;94.70;;;;;;2049343;29;20179;-63
2021/08/24 03:05:28;;;;;;;3.35;2.50;;;10.80;94.70;;;;;;2041612;29;20180;-66
2021/08/24 03:06:32;;;;;;;3.07;2.30;;;10.70;94.60;;;;;;2049297;29;20203;-65
2021/08/24 03:07:36;;;;;;;3.45;2.78;;;10.80;94.70;;;;;;2049286;29;20184;-66
2021/08/24 03:08:36;;;;;;;3.92;2.63;;;10.70;94.60;;;;;;2041503;29;20192;-66
2021/08/24 03:09:39;;;;;;;4.03;2.30;;;10.80;94.70;;;;;;2041530;29;20181;-67
2021/08/24 03:10:43;;;;;;;5.47;2.40;;;10.80;94.70;;;;;;2041532;29;20204;-66
2021/08/24 03:12:11;;;;;;;4.85;2.92;;;10.80;94.80;;;;;;2041999;29;20667;-66
2021/08/24 03:13:26;;;;;;;4.80;3.88;;;10.90;94.90;;;;;;2049161;29;20208;-68
2021/08/24 03:14:36;;;;;;;3.40;2.75;;;10.90;95.00;;;;;;2050787;28;20646;-67
2021/08/24 03:15:59;;;;;;;3.47;2.60;;;10.90;95.00;;;;;;2049410;29;20168;-66
2021/08/24 03:17:10;;;;;;;4.10;2.78;;;10.90;95.20;;;;;;2049772;29;20167;-66
2021/08/24 03:18:23;;;;;;;3.75;2.95;;;10.90;95.70;;;;;;2049857;28;20623;-66
2021/08/24 03:19:30;;;;;;;4.63;2.65;;;10.90;95.10;;;;;;2048935;28;20156;-67
2021/08/24 03:20:36;;;;;;;3.53;2.67;;;10.90;95.10;;;;;;2041982;29;20251;-67
2021/08/24 03:21:38;;;;;;;6.97;2.80;;;10.90;95.20;;;;;;2042028;29;20169;-66
2021/08/24 03:22:40;;;;;;;4.72;2.72;;;10.90;95.30;;;;;;2041064;29;20184;-66
2021/08/24 03:23:43;;;;;;;3.55;2.47;;;10.90;95.30;;;;;;2041347;29;20176;-67
2021/08/24 03:24:44;;;;;;;2.90;2.53;;;10.90;95.20;;;;;;2041355;29;20203;-67
2021/08/24 03:25:47;;;;;;;3.60;2.93;;;11.00;95.20;;;;;;2049082;29;20172;-67
2021/08/24 03:26:50;;;;;;;3.88;2.80;;;11.10;95.20;;;;;;2048976;29;20176;-66
2021/08/24 03:27:52;;;;;;;3.45;2.47;;;11.10;95.10;;;;;;2049083;29;20207;-66
2021/08/24 03:28:53;;;;;;;4.03;2.72;;;11.20;94.90;;;;;;2048710;29;20220;-67
2021/08/24 03:30:09;;;;;;;4.93;3.15;;;11.20;94.80;;;;;;2033384;29;20712;-67
2021/08/24 03:31:15;;;;;;;3.67;2.95;;;11.30;94.90;;;;;;2043077;29;20639;-67
2021/08/24 03:32:16;;;;;;;3.35;2.70;;;11.40;94.80;;;;;;2048990;29;20737;-67
2021/08/24 03:33:18;;;;;;;3.60;3.20;;;11.40;94.70;;;;;;2048937;29;20322;-67
2021/08/24 03:34:19;;;;;;;5.45;3.10;;;11.40;94.60;;;;;;2049012;29;20250;-66
2021/08/24 03:35:22;;;;;;;4.45;3.20;;;11.50;94.40;;;;;;2048936;29;20262;-67
2021/08/24 03:36:22;;;;;;;4.35;3.28;;;11.40;94.50;;;;;;2049502;29;20219;-67
2021/08/24 03:37:23;;;;;;;4.40;3.20;;;11.40;94.50;;;;;;2049459;28;20186;-66
2021/08/24 03:38:24;;;;;;;6.20;3.33;;;11.40;94.50;;;;;;2049607;28;20231;-67
2021/08/24 03:39:24;;;;;;;4.50;3.30;;;11.40;95.00;;;;;;2048575;28;20270;-66
2021/08/24 03:40:25;;;;;;;3.40;2.77;;;11.40;94.60;;;;;;2049003;29;20188;-67
2021/08/24 03:41:27;;;;;;;6.40;3.13;;;11.50;94.50;;;;;;2049491;28;20256;-67
2021/08/24 03:42:27;;;;;;;3.47;2.92;;;11.50;94.50;;;;;;2049389;28;20199;-66
2021/08/24 03:43:28;;;;;;;4.33;3.07;;;11.50;94.60;;;;;;2049402;28;20184;-66
2021/08/24 03:44:29;;;;;;;3.93;2.47;;;11.50;94.40;;;;;;2049539;28;20179;-67
2021/08/24 03:45:30;;;;;;;5.65;3.45;;;11.40;94.50;;;;;;2049472;28;20711;-66
2021/08/24 03:46:31;;;;;;;3.87;3.43;;;11.40;94.50;;;;;;2049489;28;20252;-67
2021/08/24 03:47:32;;;;;;;3.97;3.40;;;11.40;94.60;;;;;;2048824;29;20198;-65
2021/08/24 03:48:32;;;;;;;3.53;3.23;;;11.40;94.50;;;;;;2048945;29;20188;-67
2021/08/24 03:49:33;;;;;;;4.87;4.00;;;11.40;94.30;;;;;;2048559;28;20210;-66
2021/08/24 03:50:34;;;;;;;6.30;4.80;;;11.40;94.40;;;;;;2048957;29;20214;-65
2021/08/24 03:51:35;;;;;;;6.20;4.07;;;11.40;94.40;;;;;;2049370;29;20197;-67
2021/08/24 03:52:36;;;;;;;6.17;3.60;;;11.30;94.60;;;;;;2049335;28;20199;-66
2021/08/24 03:53:36;;;;;;;6.83;4.20;;;11.30;94.80;;;;;;2048822;29;20538;-67
2021/08/24 03:54:37;;;;;;;3.40;3.10;;;11.40;94.70;;;;;;2048725;29;20194;-66
2021/08/24 03:55:38;;;;;;;4.07;3.03;;;11.40;94.60;;;;;;2048881;29;20187;-66
2021/08/24 03:56:41;;;;;;;4.43;3.50;;;11.40;94.40;;;;;;2048762;29;20558;-67
2021/08/24 03:57:42;;;;;;;5.50;4.03;;;11.40;94.30;;;;;;2049394;29;20212;-67
2021/08/24 03:58:42;;;;;;;6.50;4.07;;;11.40;94.40;;;;;;2049450;28;20179;-67
2021/08/24 03:59:43;;;;;;;5.67;3.93;;;11.40;94.40;;;;;;2049133;28;20548;-67
2021/08/24 04:00:46;;;;;;;5.17;4.07;;;11.40;94.40;;;;;;2049321;28;20256;-66
2021/08/24 04:01:47;;;;;;;6.25;4.10;;;11.50;94.40;;;;;;2048673;29;20222;-67
2021/08/24 04:02:48;;;;;;;3.43;2.97;;;11.40;94.30;;;;;;2048800;29;20172;-66
2021/08/24 04:03:48;;;;;;;5.53;3.27;;;11.40;94.20;;;;;;2049375;29;20226;-66
2021/08/24 04:04:49;;;;;;;6.43;3.73;;;11.40;94.20;;;;;;2049427;28;20554;-67
2021/08/24 04:06:01;;;;;;;4.93;2.83;;;11.40;94.20;;;;;;2048771;29;20176;-66
2021/08/24 04:07:03;;;;;;;6.28;3.70;;;11.40;94.40;;;;;;2048860;29;20180;-66
2021/08/24 04:08:04;;;;;;;4.65;3.20;;;11.40;94.30;;;;;;2049364;29;20694;-67
2021/08/24 04:09:05;;;;;;;5.20;3.75;;;11.40;94.10;;;;;;2048400;29;20198;-66
2021/08/24 04:10:07;;;;;;;6.83;3.70;;;11.40;94.20;;;;;;2040737;29;20204;-66
2021/08/24 04:11:09;;;;;;;8.90;3.95;;;11.40;94.20;;;;;;2048669;29;20188;-66
2021/08/24 04:12:10;;;;;;;3.78;2.95;;;11.40;94.30;;;;;;2049315;28;20180;-65
2021/08/24 04:13:11;;;;;;;5.78;4.03;;;11.40;94.30;;;;;;2049265;28;20191;-66
2021/08/24 04:14:11;;;;;;;5.00;3.73;;;11.30;94.00;;;;;;2049345;28;20623;-67
2021/08/24 04:15:12;;;;;;;4.73;3.43;;;11.30;94.20;;;;;;2048706;29;20222;-65
2021/08/24 04:16:14;;;;;;;5.13;3.60;;;11.40;94.20;;;;;;2048726;29;20190;-66
2021/08/24 04:17:15;;;;;;;3.97;3.17;;;11.40;94.00;;;;;;2048592;29;20270;-66
2021/08/24 04:18:16;;;;;;;4.43;2.97;;;11.40;94.10;;;;;;2048747;29;20179;-66
2021/08/24 04:19:16;;;;;;;4.73;3.30;;;11.40;94.00;;;;;;2048964;29;20219;-65
2021/08/24 04:20:18;;;;;;;5.00;3.33;;;11.40;93.90;;;;;;2049280;28;20235;-67
2021/08/24 04:21:19;;;;;;;4.40;3.30;;;11.40;93.80;;;;;;2049233;28;20647;-68
2021/08/24 04:22:22;;;;;;;3.70;3.08;;;11.40;93.80;;;;;;2049287;28;20183;-66
2021/08/24 04:23:23;;;;;;;3.30;3.00;;;11.40;93.90;;;;;;2049219;28;20547;-66
2021/08/24 04:24:24;;;;;;;5.25;3.63;;;11.40;93.90;;;;;;2049438;28;20188;-67
2021/08/24 04:25:25;;;;;;;5.37;4.20;;;11.40;93.70;;;;;;2040623;29;20647;-67
2021/08/24 04:26:26;;;;;;;4.63;3.70;;;11.40;93.70;;;;;;2040727;29;20187;-66
2021/08/24 04:27:27;;;;;;;4.47;3.22;;;11.40;93.70;;;;;;2049232;29;20190;-66
2021/08/24 04:28:28;;;;;;;4.23;3.13;;;11.40;93.80;;;;;;2049313;28;20271;-67
2021/08/24 04:29:29;;;;;;;3.90;2.90;;;11.40;93.80;;;;;;2048888;28;20191;-66
2021/08/24 04:30:30;;;;;;;5.78;3.05;;;11.40;93.90;;;;;;2048689;29;20184;-66
2021/08/24 04:31:36;;;;;;;4.90;2.83;;;11.40;93.80;;;;;;2048612;29;20192;-66
2021/08/24 04:32:41;;;;;;;4.43;3.30;;;11.30;93.70;;;;;;2049264;28;20649;-66
2021/08/24 04:33:43;;;;;;;4.22;3.33;;;11.30;93.80;;;;;;2048654;29;20259;-67
2021/08/24 04:34:43;;;;;;;8.27;4.13;;;11.20;93.90;;;;;;2047838;29;20180;-66
2021/08/24 04:35:44;;;;;;;4.43;3.27;;;11.20;93.90;;;;;;2049130;29;20214;-66
2021/08/24 04:36:45;;;;;;;4.43;3.30;;;11.20;94.60;;;;;;2049204;29;20207;-65
2021/08/24 04:37:45;;;;;;;2.80;2.30;;;11.20;94.10;;;;;;2049159;28;20696;-65
2021/08/24 04:38:46;;;;;;;3.50;2.87;;;11.20;94.20;;;;;;2049354;28;20179;-66
2021/08/24 04:39:47;;;;;;;4.23;2.87;;;11.20;94.10;;;;;;2048892;28;20217;-66
2021/08/24 04:40:49;;;;;;;4.73;3.10;;;11.20;94.00;;;;;;2049252;28;20266;-66
2021/08/24 04:41:50;;;;;;;4.63;3.20;;;11.20;94.10;;;;;;2048512;29;20538;-66
2021/08/24 04:42:50;;;;;;;3.73;3.33;;;11.20;94.20;;;;;;2048665;29;20190;-66
2021/08/24 04:43:51;;;;;;;5.17;3.13;;;11.20;94.10;;;;;;2049176;28;20187;-66
2021/08/24 04:44:52;;;;;;;5.20;3.50;;;11.20;94.00;;;;;;2049253;28;20172;-65
2021/08/24 04:45:53;;;;;;;3.77;2.90;;;11.20;93.90;;;;;;2049128;28;20662;-67
2021/08/24 04:46:53;;;;;;;4.13;3.70;;;11.20;93.80;;;;;;2048541;29;20215;-66
2021/08/24 04:47:54;;;;;;;6.07;3.73;;;11.20;93.90;;;;;;2048569;29;20176;-67
2021/08/24 04:48:55;;;;;;;3.00;2.77;;;11.20;93.90;;;;;;2048906;28;20576;-67
2021/08/24 04:49:55;;;;;;;3.80;3.03;;;11.20;93.80;;;;;;2049077;28;20203;-66
2021/08/24 04:50:57;;;;;;;6.70;2.90;;;11.30;93.70;;;;;;2049150;28;20176;-66
2021/08/24 04:51:59;;;;;;;3.35;3.00;;;11.30;93.70;;;;;;2049152;28;20194;-66
2021/08/24 04:52:59;;;;;;;4.60;2.70;;;11.30;93.70;;;;;;2049035;28;20183;-66
2021/08/24 04:54:00;;;;;;;4.23;3.03;;;11.30;93.70;;;;;;2044126;28;20668;-66
2021/08/24 04:55:01;;;;;;;6.47;2.70;;;11.30;93.80;;;;;;2042581;28;20306;-66
2021/08/24 04:56:01;;;;;;;3.33;2.50;;;11.30;93.80;;;;;;2043823;28;20242;-66
2021/08/24 04:57:05;;;;;;;2.83;2.53;;;11.30;93.80;;;;;;2049393;28;20183;-66
2021/08/24 04:58:05;;;;;;;3.17;2.47;;;11.30;93.80;;;;;;2051742;28;20582;-67
2021/08/24 04:59:06;;;;;;;4.73;3.40;;;11.30;93.90;;;;;;2044399;28;20211;-66
2021/08/24 05:00:08;;;;;;;3.20;2.77;;;11.40;93.80;;;;;;2056422;28;20211;-67
2021/08/24 05:01:09;;;;;;;4.88;3.00;;;11.30;93.70;;;;;;2056847;28;20232;-67
2021/08/24 05:02:09;;;;;;;3.27;2.90;;;11.30;93.70;;;;;;2056995;28;20245;-66
2021/08/24 05:03:10;;;;;;;3.63;2.80;;;11.30;93.60;;;;;;2057042;28;20171;-66
2021/08/24 05:04:11;;;;;;;5.57;3.00;;;11.40;93.50;;;;;;2057078;28;20782;-67
2021/08/24 05:05:11;;;;;;;3.23;2.80;;;11.30;93.60;;;;;;2056932;28;20171;-67
2021/08/24 05:06:12;;;;;;;4.77;2.93;;;11.30;93.40;;;;;;2057059;28;20175;-66
2021/08/24 05:07:13;;;;;;;4.57;3.00;;;11.20;93.50;;;;;;2057017;28;20183;-66
2021/08/24 05:08:13;;;;;;;3.00;2.50;;;11.20;93.80;;;;;;2057069;28;20179;-66
2021/08/24 05:09:14;;;;;;;3.27;2.20;;;11.20;93.90;;;;;;2056386;28;20570;-67
2021/08/24 05:10:15;;;;;;;3.20;2.13;;;11.20;93.80;;;;;;2053953;28;20265;-67
2021/08/24 05:11:15;;;;;;;2.87;2.40;;;11.10;93.70;;;;;;2048399;29;20195;-66
2021/08/24 05:12:16;;;;;;;4.20;2.97;;;11.00;93.90;;;;;;2048522;29;20238;-66
2021/08/24 05:13:17;;;;;;;3.33;2.47;;;11.00;94.00;;;;;;2049056;28;20211;-67
2021/08/24 05:14:17;;;;;;;2.40;1.80;;;11.00;94.00;;;;;;2049154;28;20198;-65
2021/08/24 05:15:19;;;;;;;5.50;2.03;;;11.10;93.80;;;;;;2048948;28;20535;-67
2021/08/24 05:16:19;;;;;;;3.30;2.55;;;11.10;93.90;;;;;;2048524;29;20194;-67
2021/08/24 05:17:20;;;;;;;5.57;3.43;;;11.10;93.80;;;;;;2048332;29;20724;-66
2021/08/24 05:18:21;;;;;;;3.50;2.80;;;11.20;93.70;;;;;;2049072;29;20176;-66
2021/08/24 05:19:22;;;;;;;6.60;3.27;;;11.20;94.20;;;;;;2048208;28;20183;-66
2021/08/24 05:20:23;;;;;;;3.30;2.45;;;11.20;93.50;;;;;;2049033;28;20295;-67
2021/08/24 05:21:24;;;;;;;4.05;2.95;;;11.30;93.50;;;;;;2048243;28;20182;-66
2021/08/24 05:22:25;;;;;;;3.80;2.60;;;11.30;93.50;;;;;;2048440;29;20183;-67
2021/08/24 05:23:25;;;;;;;2.97;2.27;;;11.20;93.50;;;;;;2048313;29;20172;-67
2021/08/24 05:24:26;;;;;;;2.47;2.27;;;11.20;93.40;;;;;;2048513;29;20172;-67
2021/08/24 05:25:28;;;;;;;3.67;2.40;;;11.20;93.50;;;;;;2049010;28;20548;-66
2021/08/24 05:26:29;;;;;;;2.33;1.92;;;11.20;93.20;;;;;;2049096;28;20239;-66
2021/08/24 05:27:32;;;;;;;3.70;2.60;;;11.20;93.30;;;;;;2048234;29;20650;-66
2021/08/24 05:28:33;;;;;;;3.40;2.50;;;11.30;93.20;;;;;;2048488;28;20184;-67
2021/08/24 05:29:34;;;;;;;2.53;2.33;;;11.30;93.10;;;;;;2048268;28;20184;-67
2021/08/24 05:30:35;;;;;;;4.77;2.50;;;11.30;93.00;;;;;;2048358;29;20180;-66
2021/08/24 05:31:35;;;;;;;3.07;2.60;;;11.30;93.00;;;;;;2048494;29;20187;-67
2021/08/24 05:32:36;;;;;;;3.10;2.70;;;11.30;92.90;;;;;;2048884;29;20183;-66
2021/08/24 05:33:37;;;;;;;3.10;2.70;;;11.20;93.70;;;;;;2048923;28;20191;-66
2021/08/24 05:34:38;;;;;;;3.13;2.67;;;11.20;93.30;;;;;;2048817;28;20175;-66
2021/08/24 05:35:38;;;;;;;3.07;2.50;;;11.20;93.20;;;;;;2049065;28;20187;-67
2021/08/24 05:36:39;;;;;;;2.87;1.90;;;11.30;93.20;;;;;;2048232;29;20184;-65
2021/08/24 05:37:40;;;;;;;2.73;2.40;;;11.30;93.30;;;;;;2048346;29;20616;-67
2021/08/24 05:38:41;;;;;;;8.68;2.70;;;11.40;93.20;;;;;;2048845;29;20176;-65
2021/08/24 05:39:42;;;;;;;3.53;2.50;;;11.40;92.80;;;;;;2048195;28;20199;-67
2021/08/24 05:40:42;;;;;;;2.60;2.40;;;11.40;92.90;;;;;;2048860;28;20215;-66
2021/08/24 05:41:43;;;;;;;2.77;2.37;;;11.40;92.60;;;;;;2048326;29;20182;-66
2021/08/24 05:42:44;;;;;;;4.03;3.00;;;11.30;92.50;;;;;;2048300;29;20176;-67
2021/08/24 05:43:45;;;;;;;2.70;2.20;;;11.30;92.80;;;;;;2049076;28;20563;-67
2021/08/24 05:44:45;;;;;;;4.23;2.40;;;11.30;93.10;;;;;;2040265;29;20184;-66
2021/08/24 05:46:04;;;;;;;2.53;2.13;;;11.30;92.90;;;;;;2040636;29;20188;-67
2021/08/24 05:47:05;;;;;;;2.50;2.30;;;11.40;92.80;;;;;;2049635;29;20207;-67
2021/08/24 05:48:05;;;;;;;2.87;1.90;;;11.40;92.70;;;;;;2049836;29;20184;-66
2021/08/24 05:49:09;;;;;;;4.17;2.67;;;11.50;93.20;;;;;;2049033;29;20179;-66
2021/08/24 05:50:12;;;;;;;2.97;2.67;;;11.40;92.60;;;;;;2042179;29;20204;-66
2021/08/24 05:51:17;;;;;;;2.03;1.80;;;11.40;92.80;;;;;;2042242;29;20272;-65
2021/08/24 05:52:18;;;;;;;2.85;1.98;;;11.50;92.80;;;;;;2049801;29;20183;-66
2021/08/24 05:53:18;;;;;;;2.50;2.30;;;11.40;92.60;;;;;;2050248;28;20176;-65
2021/08/24 05:54:19;;;;;;;3.87;2.60;;;11.40;92.80;;;;;;2050286;28;20187;-66
2021/08/24 05:55:20;;;;;;;4.63;2.87;;;11.40;92.80;;;;;;2050193;28;20179;-64
2021/08/24 05:56:24;;;;;;;3.60;2.23;;;11.50;92.70;;;;;;2050292;28;20191;-65
2021/08/24 05:57:25;;;;;;;4.28;2.20;;;11.50;92.40;;;;;;2049491;29;20355;-65
2021/08/24 05:58:26;;;;;;;2.37;2.17;;;11.50;92.50;;;;;;2041858;29;20595;-65
2021/08/24 05:59:26;;;;;;;4.03;2.40;;;11.50;92.30;;;;;;2048844;28;20701;-65
2021/08/24 06:00:27;;;;;;;3.53;2.37;;;11.50;92.70;;;;;;2049619;29;20608;-66
2021/08/24 06:01:31;;;;;;;3.77;2.40;;;11.50;92.40;;;;;;2049445;29;20658;-66
2021/08/24 06:02:32;;;;;;;2.90;2.13;;;11.60;92.40;;;;;;2049665;29;20168;-66
2021/08/24 06:03:33;;;;;;;4.13;2.42;;;11.60;92.20;;;;;;2049532;29;20188;-65
2021/08/24 06:04:35;;;;;;;4.53;2.30;;;11.70;92.10;;;;;;2049575;29;20234;-66
2021/08/24 06:05:40;;;;;;;4.38;2.33;;;11.80;92.00;;;;;;2041638;29;20191;-65
2021/08/24 06:06:43;;;;;;;3.67;2.72;;;11.90;91.70;;;;;;2042351;29;20594;-65
2021/08/24 06:07:44;;;;;;;2.83;1.90;;;11.90;91.60;;;;;;2049491;29;20184;-65
2021/08/24 06:08:44;;;;;;;3.37;2.23;;;12.00;91.70;;;;;;2050166;28;20651;-66
2021/08/24 06:09:45;;;;;;;3.97;2.43;;;11.90;91.00;;;;;;2049421;28;20254;-66
2021/08/24 06:10:46;;;;;;;2.70;2.33;;;12.00;91.20;;;;;;2050235;28;20270;-65
2021/08/24 06:11:50;;;;;;;2.77;2.10;;;12.10;91.20;;;;;;2050077;28;20698;-65
2021/08/24 06:12:51;;;;;;;2.58;1.95;;;12.00;90.70;;;;;;2049582;29;20832;-65
2021/08/24 06:13:53;;;;;;;2.57;2.10;;;12.00;90.80;;;;;;2049498;29;20214;-66
2021/08/24 06:14:54;;;;;;;2.33;1.88;;;12.10;91.70;;;;;;2050120;29;20184;-66
2021/08/24 06:15:54;;;;;;;1.90;1.70;;;12.10;90.90;;;;;;2050084;28;20218;-65
2021/08/24 06:16:57;;;;;;;3.47;2.40;;;12.20;90.40;;;;;;2050060;28;20206;-66
2021/08/24 06:17:58;;;;;;;3.20;2.33;;;12.10;90.60;;;;;;2049967;28;20211;-66
2021/08/24 06:18:59;;;;;;;3.87;2.00;;;12.10;90.80;;;;;;2049493;28;20520;-65
2021/08/24 06:19:59;;;;;;;2.60;1.60;;;12.20;90.90;;;;;;2049922;28;20200;-66
2021/08/24 06:21:01;;;;;;;2.90;2.27;;;12.10;90.40;;;;;;2050114;28;20432;-66
2021/08/24 06:22:02;;;;;;;3.33;2.60;;;12.10;90.50;;;;;;2049983;28;20631;-67
2021/08/24 06:23:03;;;;;;;3.30;1.77;;;12.10;90.50;;;;;;2049444;29;20176;-66
2021/08/24 06:24:06;;;;;;;2.63;1.67;;;12.20;90.70;;;;;;2049368;29;20208;-67
2021/08/24 06:25:08;;;;;;;4.35;2.97;;;12.20;90.60;;;;;;2049976;29;20559;-66
2021/08/24 06:26:09;;;;;;;2.22;1.70;;;12.20;90.60;;;;;;2049919;28;20188;-66
2021/08/24 06:27:09;;;;;;;2.87;2.47;;;12.30;91.00;;;;;;2049981;28;20533;-66
2021/08/24 06:28:10;;;;;;;3.40;2.40;;;12.30;90.30;;;;;;2049877;29;20187;-65
2021/08/24 06:29:11;;;;;;;3.47;1.67;;;12.30;90.30;;;;;;2048789;29;20671;-65
2021/08/24 06:30:13;;;;;;;3.38;2.45;;;12.40;89.30;;;;;;2049242;28;20692;-66
2021/08/24 06:31:19;;;;;;;3.97;2.60;;;12.30;88.50;;;;;;2049994;29;20647;-66
2021/08/24 06:32:37;;;;;;;1.85;1.70;;;12.40;89.20;;;;;;2049173;29;20184;-65
2021/08/24 06:33:39;;;;;;;2.75;2.38;;;12.40;88.80;;;;;;2043755;29;20164;-65
2021/08/24 06:34:40;;;;;;;1.90;1.60;;;12.50;88.70;;;;;;2041443;29;20203;-64
2021/08/24 06:35:40;;;;;;;4.67;1.80;;;12.40;88.80;;;;;;2049417;29;20183;-64
2021/08/24 06:36:42;;;;;;;3.47;1.90;;;12.40;88.80;;;;;;2049776;28;20238;-64
2021/08/24 06:37:43;;;;;;;3.72;2.30;;;12.40;89.50;;;;;;2049298;29;20212;-65
2021/08/24 06:38:45;;;;;;;6.22;2.13;;;12.30;89.30;;;;;;2049157;29;20215;-66
2021/08/24 06:39:46;;;;;;;2.42;1.45;;;12.40;89.50;;;;;;2040612;29;20192;-65
2021/08/24 06:40:47;;;;;;;2.77;2.20;;;12.30;89.60;;;;;;2041311;29;20182;-65
2021/08/24 06:41:47;;;;;;;2.20;1.90;;;12.30;88.70;;;;;;2049853;28;20168;-66
2021/08/24 06:42:51;;;;;;;2.83;1.60;;;12.30;89.80;;;;;;2049608;28;20199;-64
2021/08/24 06:43:52;;;;;;;2.47;1.85;;;12.20;89.70;;;;;;2061865;28;20179;-65
2021/08/24 06:44:53;;;;;;;3.00;2.30;;;12.20;89.70;;;;;;2060334;28;20648;-63
2021/08/24 06:45:54;;;;;;;1.88;1.60;;;12.10;90.40;;;;;;2061692;28;20206;-65
2021/08/24 06:46:55;;;;;;;2.58;1.90;;;12.10;90.40;;;;;;2049045;29;20187;-64
2021/08/24 06:47:56;;;;;;;2.37;1.77;;;12.20;90.00;;;;;;2049293;29;20597;-65
2021/08/24 06:48:57;;;;;;;1.73;1.63;;;12.30;89.80;;;;;;2049086;29;20674;-66
2021/08/24 06:49:58;;;;;;;3.00;1.97;;;12.30;89.40;;;;;;2049690;28;20219;-64
2021/08/24 06:50:58;;;;;;;2.43;1.93;;;12.20;90.10;;;;;;2049779;28;20180;-66
2021/08/24 06:51:59;;;;;;;7.40;2.30;;;12.20;90.40;;;;;;2041343;29;20219;-66
2021/08/24 06:53:01;;;;;;;1.77;1.60;;;12.30;90.40;;;;;;2041225;29;20192;-67
2021/08/24 06:54:02;;;;;;;2.88;1.70;;;12.40;89.50;;;;;;2049776;29;20192;-67
2021/08/24 06:55:05;;;;;;;2.25;1.63;;;12.50;89.10;;;;;;2049760;28;20185;-66
2021/08/24 06:56:06;;;;;;;2.03;1.60;;;12.60;88.50;;;;;;2049316;29;20191;-66
2021/08/24 06:57:07;;;;;;;1.80;1.70;;;12.50;87.90;;;;;;2048924;28;20179;-65
2021/08/24 06:58:09;;;;;;;2.27;2.07;;;12.50;88.30;;;;;;2049102;28;20207;-66
2021/08/24 06:59:12;;;;;;;2.25;1.90;;;12.50;87.50;;;;;;2049191;28;20187;-65
2021/08/24 07:00:17;;;;;;;2.08;1.80;;;12.50;88.00;;;;;;2049752;28;20250;-67
2021/08/24 07:01:22;;;;;;;3.78;2.53;;;12.50;86.60;;;;;;2049664;28;20176;-66
2021/08/24 07:02:23;;;;;;;2.92;2.05;;;12.40;87.30;;;;;;2049369;29;20219;-64
2021/08/24 07:03:24;;;;;;;1.83;1.40;;;12.40;87.70;;;;;;2049249;29;20746;-66
2021/08/24 07:04:24;;;;;;;2.33;1.93;;;12.50;87.40;;;;;;2049850;29;20207;-66
2021/08/24 07:05:29;;;;;;;2.63;2.10;;;12.50;88.50;;;;;;2049797;28;20182;-67
2021/08/24 07:06:30;;;;;;;2.40;2.13;;;12.50;87.40;;;;;;2050068;28;20171;-66
2021/08/24 07:07:31;;;;;;;2.43;1.50;;;12.50;87.00;;;;;;2049701;28;20202;-67
2021/08/24 07:08:32;;;;;;;3.47;2.33;;;12.50;87.10;;;;;;2049841;28;20179;-66
2021/08/24 07:09:32;;;;;;;2.90;2.23;;;12.40;87.70;;;;;;2049085;28;20187;-65
2021/08/24 07:10:33;;;;;;;4.90;2.43;;;12.30;86.80;;;;;;2049718;29;20180;-66
2021/08/24 07:11:34;;;;;;;3.27;2.50;;;12.20;89.00;;;;;;2049157;29;20176;-66
2021/08/24 07:12:34;;;;;;;3.20;2.20;;;12.10;88.70;;;;;;2049007;29;20231;-64
2021/08/24 07:13:36;;;;;;;4.10;2.20;;;12.10;88.70;;;;;;2052147;28;20563;-65
2021/08/24 07:14:37;;;;;;;4.15;2.72;;;12.10;89.10;;;;;;2049511;28;20527;-65
2021/08/24 07:15:38;;;;;;;3.25;2.05;;;12.20;89.00;;;;;;2049050;29;20186;-65
2021/08/24 07:16:43;;;;;;;3.03;2.33;;;12.20;88.30;;;;;;2048894;29;20203;-65
2021/08/24 07:17:44;;;;;;;3.78;2.75;;;12.20;88.90;;;;;;2049197;29;20473;-73
2021/08/24 07:18:45;;;;;;;2.58;2.03;;;12.10;88.90;;;;;;2041349;29;20184;-70
2021/08/24 07:19:45;;;;;;;4.10;2.50;;;12.10;89.10;;;;;;2032465;29;20200;-73
2021/08/24 07:20:54;;;;;;;8.40;2.40;;;12.10;89.30;;;;;;2033004;29;20205;-64
2021/08/24 07:21:55;;;;;;;1.98;1.73;;;12.10;90.10;;;;;;2049104;29;20176;-66
2021/08/24 07:22:58;;;;;;;3.27;2.27;;;12.10;90.40;;;;;;2049487;28;20655;-65
2021/08/24 07:24:00;;;;;;;5.25;2.80;;;12.20;90.60;;;;;;2049052;29;20168;-66
2021/08/24 07:25:04;;;;;;;2.80;2.30;;;12.30;89.60;;;;;;2048764;29;20242;-66
2021/08/24 07:26:05;;;;;;;3.15;2.00;;;12.30;89.50;;;;;;2048789;29;20295;-67
2021/08/24 07:27:06;;;;;;;3.80;2.60;;;12.30;89.20;;;;;;2048791;29;20176;-66
2021/08/24 07:28:10;;;;;;;5.20;2.87;;;12.30;88.90;;;;;;2048887;29;20187;-66
2021/08/24 07:29:11;;;;;;;5.07;2.80;;;12.40;89.70;;;;;;2048282;29;20190;-65
2021/08/24 07:30:13;;;;;;;4.80;2.33;;;12.30;89.10;;;;;;2049418;28;20275;-66
2021/08/24 07:31:14;;;;;;;6.20;3.38;;;12.30;89.60;;;;;;2048752;29;20180;-65
2021/08/24 07:32:15;;;;;;;3.30;2.70;;;12.30;88.80;;;;;;2048893;29;20191;-65
2021/08/24 07:33:17;;;;;;;3.97;2.30;;;12.30;89.70;;;;;;2048706;29;20238;-66
2021/08/24 07:34:18;;;;;;;5.07;2.63;;;12.30;90.00;;;;;;2048932;29;20208;-67
2021/08/24 07:35:19;;;;;;;4.33;2.07;;;12.40;89.10;;;;;;2049390;28;20270;-65
2021/08/24 07:36:19;;;;;;;3.83;2.87;;;12.30;89.10;;;;;;2049490;28;20211;-68
2021/08/24 07:37:20;;;;;;;3.60;2.60;;;12.00;90.40;;;;;;2048755;29;20246;-66
2021/08/24 07:38:21;;;;;;;3.40;2.50;;;11.80;91.20;;;;;;2048849;29;20274;-67
2021/08/24 07:39:22;;;;;;;4.00;2.37;;;11.90;91.70;;;;;;2048695;28;20643;-67
2021/08/24 07:40:23;;;;;;;3.20;2.20;;;11.90;92.00;;;;;;2049541;28;20263;-66
2021/08/24 07:41:24;;;;;;;4.80;2.90;;;12.00;91.00;;;;;;2048814;29;20176;-67